createdAt,value
2017-10-18T00:00:17.863Z,10.20
2017-10-18T00:02:46.271Z,10.20
2017-10-18T00:05:15.413Z,10.30
2017-10-18T00:07:43.791Z,10.30
2017-10-18T00:10:12.202Z,10.30
2017-10-18T00:12:40.592Z,10.30
2017-10-18T00:15:09.774Z,10.30
2017-10-18T00:17:38.154Z,10.30
2017-10-18T00:20:06.546Z,10.30
2017-10-18T00:22:35.751Z,10.30
2017-10-18T00:25:04.906Z,10.20
2017-10-18T00:27:33.420Z,10.20
2017-10-18T00:30:02.563Z,10.30
2017-10-18T00:32:30.939Z,10.30
2017-10-18T00:34:59.341Z,10.30
2017-10-18T00:37:27.727Z,10.20
2017-10-18T00:39:56.385Z,10.20
2017-10-18T00:42:24.771Z,10.20
2017-10-18T00:44:53.144Z,10.10
2017-10-18T00:47:21.552Z,10.10
2017-10-18T00:49:49.922Z,10.10
2017-10-18T00:52:18.412Z,10.10
2017-10-18T00:54:46.798Z,10.00
2017-10-18T00:57:15.192Z,9.90
2017-10-18T00:59:44.354Z,9.90
2017-10-18T01:02:12.737Z,9.90
2017-10-18T01:04:41.399Z,9.90
2017-10-18T01:07:09.765Z,9.90
2017-10-18T01:09:38.143Z,9.90
2017-10-18T01:12:06.536Z,9.90
2017-10-18T01:14:34.910Z,9.90
2017-10-18T01:17:03.323Z,9.90
2017-10-18T01:19:31.696Z,9.90
2017-10-18T01:22:00.139Z,9.80
2017-10-18T01:24:28.501Z,9.60
2017-10-18T01:26:56.885Z,9.60
2017-10-18T01:29:25.288Z,9.70
2017-10-18T01:31:53.663Z,9.80
2017-10-18T01:34:22.251Z,9.80
2017-10-18T01:36:50.629Z,9.70
2017-10-18T01:39:19.008Z,9.70
2017-10-18T01:41:47.409Z,9.70
2017-10-18T01:44:15.799Z,9.70
2017-10-18T01:46:44.448Z,9.60
2017-10-18T01:49:12.828Z,9.50
2017-10-18T01:51:41.241Z,9.50
2017-10-18T01:54:10.392Z,9.50
2017-10-18T01:56:38.759Z,9.50
2017-10-18T01:59:07.170Z,9.50
2017-10-18T02:01:35.542Z,9.60
2017-10-18T02:04:03.919Z,9.60
2017-10-18T02:06:32.309Z,9.60
2017-10-18T02:09:00.678Z,9.60
2017-10-18T02:11:29.260Z,9.50
2017-10-18T02:13:57.627Z,9.50
2017-10-18T02:16:25.994Z,9.60
2017-10-18T02:18:54.397Z,9.50
2017-10-18T02:21:22.767Z,9.50
2017-10-18T02:23:51.217Z,9.50
2017-10-18T02:26:19.606Z,9.40
2017-10-18T02:28:48.619Z,9.40
2017-10-18T02:31:17.049Z,9.30
2017-10-18T02:33:46.209Z,9.30
2017-10-18T02:36:14.618Z,9.30
2017-10-18T02:38:43.755Z,9.40
2017-10-18T02:41:12.121Z,9.40
2017-10-18T02:43:40.513Z,9.40
2017-10-18T02:46:08.884Z,9.40
2017-10-18T02:48:37.305Z,9.50
2017-10-18T02:51:05.684Z,9.40
2017-10-18T02:53:34.065Z,9.40
2017-10-18T02:56:02.463Z,9.40
2017-10-18T02:58:31.607Z,9.40
2017-10-18T03:01:00.195Z,9.40
2017-10-18T03:03:28.561Z,9.30
2017-10-18T03:05:56.935Z,9.40
2017-10-18T03:08:25.325Z,9.30
2017-10-18T03:10:53.703Z,9.40
2017-10-18T03:13:22.286Z,9.40
2017-10-18T03:15:50.654Z,9.40
2017-10-18T03:18:19.024Z,9.40
2017-10-18T03:20:47.417Z,9.40
2017-10-18T03:23:15.837Z,9.40
2017-10-18T03:25:44.403Z,9.30
2017-10-18T03:28:12.790Z,9.20
2017-10-18T03:30:41.157Z,9.10
2017-10-18T03:33:09.579Z,9.00
2017-10-18T03:35:38.746Z,9.00
2017-10-18T03:38:07.408Z,8.90
2017-10-18T03:40:35.790Z,8.90
2017-10-18T03:43:04.161Z,8.90
2017-10-18T03:45:32.569Z,8.80
2017-10-18T03:48:00.940Z,8.80
2017-10-18T03:50:29.506Z,8.70
2017-10-18T03:52:57.885Z,8.60
2017-10-18T03:55:26.248Z,8.60
2017-10-18T03:57:54.643Z,8.60
2017-10-18T04:00:23.081Z,8.60
2017-10-18T04:02:52.515Z,8.50
2017-10-18T04:05:21.426Z,8.50
2017-10-18T04:07:49.801Z,8.50
2017-10-18T04:10:18.190Z,8.40
2017-10-18T04:12:46.559Z,8.30
2017-10-18T04:15:14.994Z,8.40
2017-10-18T04:17:44.129Z,8.40
2017-10-18T04:20:12.511Z,8.40
2017-10-18T04:22:40.914Z,8.40
2017-10-18T04:25:10.044Z,8.40
2017-10-18T04:27:39.243Z,8.40
2017-10-18T04:30:07.618Z,8.40
2017-10-18T04:32:36.763Z,8.40
2017-10-18T04:35:05.244Z,8.30
2017-10-18T04:37:33.649Z,8.30
2017-10-18T04:40:02.823Z,8.30
2017-10-18T04:42:31.203Z,8.20
2017-10-18T04:44:59.643Z,8.30
2017-10-18T04:47:28.011Z,8.20
2017-10-18T04:49:56.383Z,8.30
2017-10-18T04:52:25.547Z,8.40
2017-10-18T04:54:53.920Z,8.30
2017-10-18T04:57:22.469Z,8.50
2017-10-18T04:59:50.841Z,8.50
2017-10-18T05:02:19.207Z,8.50
2017-10-18T05:04:47.607Z,8.50
2017-10-18T05:07:15.991Z,8.50
2017-10-18T05:09:44.782Z,8.40
2017-10-18T05:12:13.160Z,8.40
2017-10-18T05:14:41.537Z,8.40
2017-10-18T05:17:09.947Z,8.50
2017-10-18T05:19:38.322Z,8.40
2017-10-18T05:22:08.254Z,8.40
2017-10-18T05:24:36.615Z,8.40
2017-10-18T05:27:05.066Z,8.50
2017-10-18T05:29:33.434Z,8.50
2017-10-18T05:32:01.805Z,8.40
2017-10-18T05:34:30.194Z,8.40
2017-10-18T05:36:58.574Z,8.30
2017-10-18T05:39:28.632Z,8.30
2017-10-18T05:41:57.000Z,8.30
2017-10-18T05:44:25.374Z,8.40
2017-10-18T05:46:53.773Z,8.30
2017-10-18T05:49:22.139Z,8.40
2017-10-18T05:51:51.307Z,8.50
2017-10-18T05:54:19.683Z,8.50
2017-10-18T05:56:48.119Z,8.50
2017-10-18T05:59:17.286Z,8.70
2017-10-18T06:01:45.658Z,8.60
2017-10-18T06:04:14.147Z,8.70
2017-10-18T06:06:42.527Z,8.80
2017-10-18T06:09:10.987Z,8.90
2017-10-18T06:11:39.384Z,9.00
2017-10-18T06:14:07.751Z,9.10
2017-10-18T06:16:36.159Z,9.20
2017-10-18T06:19:04.553Z,9.30
2017-10-18T06:21:33.693Z,9.50
2017-10-18T06:24:02.098Z,9.40
2017-10-18T06:26:31.261Z,9.60
2017-10-18T06:28:59.983Z,9.60
2017-10-18T06:31:28.371Z,9.90
2017-10-18T06:33:56.738Z,10.30
2017-10-18T06:36:25.152Z,10.60
2017-10-18T06:38:53.535Z,10.90
2017-10-18T06:41:21.939Z,11.30
2017-10-18T06:43:50.312Z,11.60
2017-10-18T06:46:18.692Z,11.80
2017-10-18T06:48:47.102Z,12.20
2017-10-18T06:51:15.475Z,12.80
2017-10-18T06:53:44.395Z,13.20
2017-10-18T06:56:12.768Z,13.50
2017-10-18T06:58:41.934Z,14.20
2017-10-18T07:01:10.362Z,14.10
2017-10-18T07:03:39.499Z,14.80
2017-10-18T07:06:07.928Z,14.80
2017-10-18T07:08:36.301Z,14.80
2017-10-18T07:11:05.470Z,13.90
2017-10-18T07:13:33.879Z,13.80
2017-10-18T07:16:03.022Z,14.40
2017-10-18T07:18:31.610Z,14.40
2017-10-18T07:20:59.988Z,15.40
2017-10-18T07:23:28.368Z,16.30
2017-10-18T07:25:56.776Z,17.10
2017-10-18T07:28:25.311Z,17.00
2017-10-18T07:30:53.916Z,16.60
2017-10-18T07:33:22.298Z,16.40
2017-10-18T07:35:50.710Z,16.50
2017-10-18T07:38:19.978Z,15.70
2017-10-18T07:40:48.360Z,15.70
2017-10-18T07:43:16.810Z,16.00
2017-10-18T07:45:45.654Z,16.10
2017-10-18T07:48:14.028Z,16.00
2017-10-18T07:50:42.435Z,16.20
2017-10-18T07:53:11.580Z,16.10
2017-10-18T07:55:40.160Z,16.10
2017-10-18T07:58:08.560Z,15.80
2017-10-18T08:00:36.949Z,16.20
2017-10-18T08:03:06.141Z,16.30
2017-10-18T08:05:34.560Z,16.20
2017-10-18T08:08:03.227Z,16.90
2017-10-18T08:10:32.391Z,17.60
2017-10-18T08:13:00.779Z,17.60
2017-10-18T08:15:29.344Z,18.30
2017-10-18T08:17:57.727Z,18.90
2017-10-18T08:20:26.405Z,19.10
2017-10-18T08:22:54.821Z,19.40
2017-10-18T08:25:23.983Z,19.40
2017-10-18T08:27:52.386Z,19.30
2017-10-18T08:30:20.768Z,19.50
2017-10-18T08:32:49.227Z,19.40
2017-10-18T08:35:17.616Z,20.10
2017-10-18T08:37:46.004Z,20.90
2017-10-18T08:40:14.436Z,21.30
2017-10-18T08:42:42.834Z,22.00
2017-10-18T08:45:11.576Z,22.70
2017-10-18T08:47:40.721Z,23.80
2017-10-18T08:50:09.134Z,23.70
2017-10-18T08:52:38.319Z,24.60
2017-10-18T08:55:06.707Z,24.50
2017-10-18T08:57:35.349Z,25.40
2017-10-18T09:00:04.192Z,25.80
2017-10-18T09:02:32.737Z,26.70
2017-10-18T09:05:01.165Z,26.70
2017-10-18T09:07:30.349Z,27.80
2017-10-18T09:09:59.719Z,28.20
2017-10-18T09:12:28.148Z,28.20
2017-10-18T09:14:58.632Z,28.50
2017-10-18T09:17:28.241Z,28.30
2017-10-18T09:19:56.794Z,28.40
2017-10-18T09:22:25.895Z,27.50
2017-10-18T09:24:54.313Z,27.20
2017-10-18T09:27:23.463Z,27.20
2017-10-18T09:29:51.867Z,27.20
2017-10-18T09:32:20.253Z,27.60
2017-10-18T09:34:48.913Z,28.40
2017-10-18T09:37:17.293Z,29.30
2017-10-18T09:39:45.684Z,29.80
2017-10-18T09:42:14.098Z,29.80
2017-10-18T09:44:43.250Z,30.40
2017-10-18T09:47:11.731Z,30.30
2017-10-18T09:49:40.104Z,30.50
2017-10-18T09:52:08.488Z,31.40
2017-10-18T09:54:36.905Z,30.40
2017-10-18T09:57:06.080Z,31.10
2017-10-18T09:59:34.745Z,31.10
2017-10-18T10:02:03.125Z,31.60
2017-10-18T10:04:31.535Z,31.30
2017-10-18T10:06:59.948Z,31.20
2017-10-18T10:09:28.339Z,31.70
2017-10-18T10:11:56.943Z,32.00
2017-10-18T10:14:25.324Z,32.30
2017-10-18T10:16:53.705Z,32.50
2017-10-18T10:19:22.112Z,32.20
2017-10-18T10:21:50.484Z,31.80
2017-10-18T10:24:19.138Z,32.00
2017-10-18T10:26:47.519Z,32.30
2017-10-18T10:29:15.897Z,32.70
2017-10-18T10:31:44.307Z,32.70
2017-10-18T10:34:12.688Z,32.70
2017-10-18T10:36:41.239Z,32.90
2017-10-18T10:39:09.625Z,32.70
2017-10-18T10:41:38.004Z,32.20
2017-10-18T10:44:06.415Z,32.60
2017-10-18T10:46:34.790Z,32.80
2017-10-18T10:49:03.924Z,32.80
2017-10-18T10:51:32.308Z,32.40
2017-10-18T10:54:00.690Z,32.00
2017-10-18T10:56:29.091Z,31.80
2017-10-18T10:58:57.468Z,30.90
2017-10-18T11:01:25.904Z,31.30
2017-10-18T11:03:54.286Z,31.90
2017-10-18T11:06:22.674Z,31.90
2017-10-18T11:08:51.077Z,32.50
2017-10-18T11:11:19.465Z,32.70
2017-10-18T11:13:48.126Z,33.10
2017-10-18T11:16:16.513Z,32.50
2017-10-18T11:18:44.903Z,32.70
2017-10-18T11:21:13.316Z,33.60
2017-10-18T11:23:41.705Z,32.50
2017-10-18T11:26:11.108Z,32.70
2017-10-18T11:28:40.267Z,32.30
2017-10-18T11:31:08.644Z,32.30
2017-10-18T11:33:37.057Z,32.70
2017-10-18T11:36:06.211Z,32.10
2017-10-18T11:38:34.788Z,32.10
2017-10-18T11:41:03.165Z,32.40
2017-10-18T11:43:31.540Z,32.70
2017-10-18T11:45:59.939Z,33.10
2017-10-18T11:48:28.310Z,33.00
2017-10-18T11:50:56.991Z,32.90
2017-10-18T11:53:25.364Z,32.90
2017-10-18T11:55:53.727Z,32.30
2017-10-18T11:58:22.145Z,32.20
2017-10-18T12:00:50.528Z,32.80
2017-10-18T12:03:19.189Z,32.70
2017-10-18T12:05:47.696Z,32.60
2017-10-18T12:08:16.075Z,32.50
2017-10-18T12:10:44.480Z,32.10
2017-10-18T12:13:13.623Z,32.60
2017-10-18T12:15:42.309Z,32.60
2017-10-18T12:18:10.685Z,32.10
2017-10-18T12:20:39.079Z,31.80
2017-10-18T12:23:07.498Z,31.40
2017-10-18T12:25:36.641Z,30.70
2017-10-18T12:28:05.328Z,30.60
2017-10-18T12:30:33.714Z,30.50
2017-10-18T12:33:02.148Z,30.60
2017-10-18T12:35:30.559Z,30.60
2017-10-18T12:37:58.943Z,30.80
2017-10-18T12:40:27.943Z,30.70
2017-10-18T12:42:56.371Z,30.10
2017-10-18T12:45:25.006Z,29.80
2017-10-18T12:47:54.866Z,30.00
2017-10-18T12:50:25.566Z,30.40
2017-10-18T12:52:54.851Z,30.30
2017-10-18T12:55:23.474Z,29.80
2017-10-18T12:57:53.042Z,30.00
2017-10-18T13:00:21.515Z,30.00
2017-10-18T13:02:49.938Z,30.10
2017-10-18T13:05:19.604Z,30.30
2017-10-18T13:07:48.044Z,30.30
2017-10-18T13:10:16.572Z,30.30
2017-10-18T13:12:45.031Z,29.70
2017-10-18T13:15:13.489Z,29.50
2017-10-18T13:17:42.411Z,29.70
2017-10-18T13:20:10.967Z,29.50
2017-10-18T13:22:39.399Z,28.80
2017-10-18T13:25:07.855Z,27.80
2017-10-18T13:27:36.304Z,27.60
2017-10-18T13:30:05.171Z,28.60
2017-10-18T13:32:34.643Z,27.90
2017-10-18T13:35:03.113Z,27.90
2017-10-18T13:37:31.593Z,27.90
2017-10-18T13:40:00.218Z,27.70
2017-10-18T13:42:28.899Z,26.50
2017-10-18T13:44:58.851Z,26.20
2017-10-18T13:47:28.803Z,26.10
2017-10-18T13:49:57.382Z,25.60
2017-10-18T13:52:25.856Z,24.90
2017-10-18T13:54:55.260Z,24.50
2017-10-18T13:57:23.640Z,24.50
2017-10-18T13:59:52.019Z,24.40
2017-10-18T14:02:20.470Z,24.40
2017-10-18T14:04:49.018Z,24.10
2017-10-18T14:07:19.121Z,23.60
2017-10-18T14:09:47.550Z,23.50
2017-10-18T14:12:15.936Z,23.20
2017-10-18T14:14:44.468Z,23.30
2017-10-18T14:17:13.171Z,23.30
2017-10-18T14:19:41.804Z,23.30
2017-10-18T14:22:10.195Z,23.00
2017-10-18T14:24:38.626Z,22.90
2017-10-18T14:27:07.756Z,23.20
2017-10-18T14:29:36.229Z,23.20
2017-10-18T14:32:05.067Z,23.00
2017-10-18T14:34:34.541Z,22.90
2017-10-18T14:37:02.940Z,22.90
2017-10-18T14:39:31.385Z,22.80
2017-10-18T14:42:00.110Z,22.70
2017-10-18T14:44:29.483Z,22.80
2017-10-18T14:46:57.872Z,22.80
2017-10-18T14:49:26.267Z,22.70
2017-10-18T14:51:54.670Z,22.60
2017-10-18T14:54:23.819Z,22.60
2017-10-18T14:56:52.203Z,22.60
2017-10-18T14:59:20.608Z,22.30
2017-10-18T15:01:49.002Z,22.20
2017-10-18T15:04:18.179Z,22.20
2017-10-18T15:06:46.611Z,22.20
2017-10-18T15:09:14.994Z,22.20
2017-10-18T15:11:43.419Z,22.30
2017-10-18T15:14:11.799Z,22.30
2017-10-18T15:16:41.003Z,22.30
2017-10-18T15:19:10.152Z,22.20
2017-10-18T15:21:38.553Z,22.20
2017-10-18T15:24:06.982Z,22.30
2017-10-18T15:26:35.360Z,22.30
2017-10-18T15:29:03.798Z,22.10
2017-10-18T15:31:32.196Z,22.10
2017-10-18T15:34:01.356Z,21.90
2017-10-18T15:36:29.834Z,21.90
2017-10-18T15:38:58.270Z,21.90
2017-10-18T15:41:26.756Z,21.90
2017-10-18T15:43:55.158Z,21.80
2017-10-18T15:46:23.556Z,21.60
2017-10-18T15:48:51.966Z,21.50
2017-10-18T15:51:20.353Z,21.40
2017-10-18T15:53:49.655Z,21.00
2017-10-18T15:56:18.804Z,20.70
2017-10-18T15:58:47.185Z,20.70
2017-10-18T16:01:15.591Z,20.50
2017-10-18T16:03:44.808Z,20.10
2017-10-18T16:06:14.013Z,19.90
2017-10-18T16:08:42.407Z,19.90
2017-10-18T16:11:10.790Z,19.70
2017-10-18T16:13:39.194Z,19.50
2017-10-18T16:16:07.577Z,19.30
2017-10-18T16:18:36.435Z,19.10
2017-10-18T16:21:04.832Z,18.90
2017-10-18T16:23:33.225Z,18.70
2017-10-18T16:26:01.800Z,18.50
2017-10-18T16:28:30.208Z,18.30
2017-10-18T16:30:59.014Z,18.20
2017-10-18T16:33:28.679Z,18.00
2017-10-18T16:35:57.097Z,17.90
2017-10-18T16:38:25.515Z,17.80
2017-10-18T16:40:53.897Z,17.70
2017-10-18T16:43:22.344Z,17.60
2017-10-18T16:45:51.433Z,17.50
2017-10-18T16:48:19.872Z,17.30
2017-10-18T16:50:48.279Z,17.20
2017-10-18T16:53:16.659Z,17.10
2017-10-18T16:55:47.126Z,17.00
2017-10-18T16:58:17.955Z,16.90
2017-10-18T17:00:50.887Z,16.80
2017-10-18T17:03:24.645Z,16.80
2017-10-18T17:05:59.581Z,16.80
2017-10-18T17:08:28.336Z,16.70
2017-10-18T17:10:57.511Z,16.40
2017-10-18T17:13:25.920Z,16.40
2017-10-18T17:15:55.072Z,16.20
2017-10-18T17:18:23.487Z,16.20
2017-10-18T17:20:52.632Z,15.90
2017-10-18T17:23:21.315Z,15.90
2017-10-18T17:25:49.695Z,15.90
2017-10-18T17:28:18.185Z,15.80
2017-10-18T17:30:46.587Z,15.70
2017-10-18T17:33:14.967Z,15.70
2017-10-18T17:35:43.645Z,15.60
2017-10-18T17:38:12.031Z,15.50
2017-10-18T17:40:41.180Z,15.40
2017-10-18T17:43:09.712Z,15.40
2017-10-18T17:45:38.093Z,15.40
2017-10-18T17:48:06.644Z,15.20
2017-10-18T17:50:35.026Z,15.10
2017-10-18T17:53:03.408Z,15.10
2017-10-18T17:55:31.811Z,15.10
2017-10-18T17:58:00.189Z,15.00
2017-10-18T18:00:28.963Z,14.90
2017-10-18T18:02:57.368Z,14.80
2017-10-18T18:05:26.547Z,14.70
2017-10-18T18:07:54.967Z,14.70
2017-10-18T18:10:23.355Z,14.50
2017-10-18T18:12:52.164Z,14.40
2017-10-18T18:15:20.573Z,14.40
2017-10-18T18:17:48.983Z,14.30
2017-10-18T18:20:18.161Z,14.20
2017-10-18T18:22:46.552Z,14.20
2017-10-18T18:25:15.965Z,14.10
2017-10-18T18:27:44.366Z,14.00
2017-10-18T18:30:12.751Z,14.00
2017-10-18T18:32:41.151Z,14.00
2017-10-18T18:35:09.550Z,13.90
2017-10-18T18:37:38.420Z,13.90
2017-10-18T18:40:06.819Z,14.00
2017-10-18T18:42:35.216Z,13.90
2017-10-18T18:45:04.415Z,13.80
2017-10-18T18:47:33.563Z,13.80
2017-10-18T18:50:02.376Z,13.80
2017-10-18T18:52:30.761Z,13.80
2017-10-18T18:54:59.147Z,13.80
2017-10-18T18:57:27.558Z,13.70
2017-10-18T18:59:55.944Z,13.70
2017-10-18T19:02:24.544Z,13.60
2017-10-18T19:04:52.924Z,13.60
2017-10-18T19:07:21.311Z,13.70
2017-10-18T19:09:49.731Z,13.60
2017-10-18T19:12:18.887Z,13.30
2017-10-18T19:14:47.767Z,13.30
2017-10-18T19:17:16.155Z,13.20
2017-10-18T19:19:44.535Z,13.10
2017-10-18T19:22:12.945Z,13.00
2017-10-18T19:24:41.335Z,13.00
2017-10-18T19:27:10.708Z,13.00
2017-10-18T19:29:39.115Z,12.90
2017-10-18T19:32:08.288Z,12.80
2017-10-18T19:34:36.716Z,12.80
2017-10-18T19:37:05.159Z,12.60
2017-10-18T19:39:33.701Z,12.50
2017-10-18T19:42:02.101Z,12.40
2017-10-18T19:44:31.308Z,12.50
2017-10-18T19:46:59.715Z,12.50
2017-10-18T19:49:28.922Z,12.40
2017-10-18T19:51:57.555Z,12.40
2017-10-18T19:54:25.977Z,12.10
2017-10-18T19:56:55.199Z,11.90
2017-10-18T19:59:23.789Z,11.90
2017-10-18T20:01:52.214Z,11.80
2017-10-18T20:04:21.282Z,11.70
2017-10-18T20:06:49.772Z,11.80
2017-10-18T20:09:18.193Z,11.80
2017-10-18T20:11:47.411Z,11.90
2017-10-18T20:14:15.873Z,11.90
2017-10-18T20:16:45.201Z,11.90
2017-10-18T20:19:13.599Z,11.90
2017-10-18T20:21:41.998Z,11.90
2017-10-18T20:24:10.462Z,11.90
2017-10-18T20:26:38.898Z,11.90
2017-10-18T20:29:07.386Z,11.80
2017-10-18T20:31:35.811Z,11.80
2017-10-18T20:34:04.974Z,11.90
2017-10-18T20:36:33.418Z,11.90
2017-10-18T20:39:02.636Z,11.80
2017-10-18T20:41:31.485Z,11.80
2017-10-18T20:43:59.903Z,11.80
2017-10-18T20:46:28.304Z,11.80
2017-10-18T20:48:56.756Z,11.80
2017-10-18T20:51:25.925Z,11.70
2017-10-18T20:53:54.687Z,11.70
2017-10-18T20:56:23.148Z,11.60
2017-10-18T20:58:51.541Z,11.60
2017-10-18T21:01:19.985Z,11.50
2017-10-18T21:03:48.501Z,11.50
2017-10-18T21:06:16.948Z,11.40
2017-10-18T21:08:45.335Z,11.40
2017-10-18T21:11:14.263Z,11.30
2017-10-18T21:13:42.719Z,11.30
2017-10-18T21:16:11.117Z,11.20
2017-10-18T21:18:39.895Z,11.20
2017-10-18T21:21:08.282Z,11.20
2017-10-18T21:23:36.687Z,11.20
2017-10-18T21:26:05.096Z,11.10
2017-10-18T21:28:33.484Z,11.10
2017-10-18T21:31:02.096Z,11.10
2017-10-18T21:33:30.513Z,11.00
2017-10-18T21:35:58.900Z,10.90
2017-10-18T21:38:28.131Z,10.90
2017-10-18T21:40:56.545Z,10.90
2017-10-18T21:43:25.323Z,10.80
2017-10-18T21:45:53.875Z,10.80
2017-10-18T21:48:22.248Z,10.70
2017-10-18T21:50:50.669Z,10.60
2017-10-18T21:53:19.090Z,10.60
2017-10-18T21:55:48.256Z,10.60
2017-10-18T21:58:16.640Z,10.60
2017-10-18T22:00:45.399Z,10.60
2017-10-18T22:03:13.787Z,10.60
2017-10-18T22:05:42.176Z,10.50
2017-10-18T22:08:10.583Z,10.40
2017-10-18T22:10:39.731Z,10.30
2017-10-18T22:13:08.438Z,10.30
2017-10-18T22:15:36.815Z,10.40
2017-10-18T22:18:05.182Z,10.40
2017-10-18T22:20:33.599Z,10.40
2017-10-18T22:23:02.739Z,10.40
2017-10-18T22:25:31.175Z,10.30
2017-10-18T22:28:00.319Z,10.10
2017-10-18T22:30:28.700Z,10.10
2017-10-18T22:32:57.096Z,10.10
2017-10-18T22:35:25.484Z,10.00
2017-10-18T22:37:54.040Z,9.90
2017-10-18T22:40:22.417Z,9.80
2017-10-18T22:42:50.797Z,9.90
2017-10-18T22:45:19.207Z,9.90
2017-10-18T22:47:47.583Z,9.80
2017-10-18T22:50:16.137Z,9.80
2017-10-18T22:52:44.516Z,9.80
2017-10-18T22:55:12.898Z,9.80
2017-10-18T22:57:41.291Z,9.70
2017-10-18T23:00:09.662Z,9.60
2017-10-18T23:02:38.270Z,9.60
2017-10-18T23:05:06.647Z,9.40
2017-10-18T23:07:35.020Z,9.50
2017-10-18T23:10:03.462Z,9.50
2017-10-18T23:12:31.835Z,9.50
2017-10-18T23:15:00.546Z,9.50
2017-10-18T23:17:28.947Z,9.40
2017-10-18T23:19:57.324Z,9.40
2017-10-18T23:22:25.732Z,9.40
2017-10-18T23:24:54.873Z,9.20
2017-10-18T23:27:23.382Z,9.20
2017-10-18T23:29:51.763Z,9.00
2017-10-18T23:32:20.126Z,8.90
2017-10-18T23:34:48.520Z,8.90
2017-10-18T23:37:16.899Z,8.80
2017-10-18T23:39:45.619Z,8.80
2017-10-18T23:42:13.996Z,8.90
2017-10-18T23:44:42.399Z,8.90
2017-10-18T23:47:10.807Z,8.90
2017-10-18T23:49:39.186Z,9.00
2017-10-18T23:52:07.616Z,9.00
2017-10-18T23:54:35.989Z,9.10
2017-10-18T23:57:04.367Z,9.10
2017-10-18T23:59:32.775Z,9.10
